Qinzhou, China
Current Conditions -  °F | °C
As of 10:00 AM on Friday 19 Dec 2014 (Local Time) from ZGNN Reporting Station
Clear Clear  
Wind Chill: 57°   Ceiling: Unl
Heat Index: 57°   Visibility: 6mi
Dew Point: 37°   Wind: 4mph
Humidity: 48%   Direction: 20°NNE
Pressure: 30.36"   Gusts: NA
Location:  21.95°N, 108.62°E
Report Text: ZGNN 190200Z 02002MPS 340V100 CAVOK 14/03 Q1028 NOSIG
Loading
Personal Weather Stations






























Interactive Weather Map New forecast layout! Learn more

10-Day Weather Forecast

Advertisements
Track Severe Weather on mobile